Plum City, Wisconsin
Current Conditions -  °F | °C
As of 10:51 PM on Thursday 30 Oct 2014 (Local Time) from KRGK Reporting Station
Scattered Clouds Scattered Clouds  
Wind Chill: 28°   Ceiling: Unl
Heat Index: 36°   Visibility: 10mi
Dew Point: 16°   Wind: 12mph
Humidity: 44%   Direction: 360°N
Pressure: 30.28"   Gusts: 28mph
Location:  44.63°N, 92.19°W
Report Text: KRGK 310351Z AUTO 36010G24KT 10SM SCT060 02/M09 A3028 RMK AO2
Loading
Personal Weather Stations






























Interactive Weather Map
Tropical Storm Tracking
New forecast layout! Learn more

10-Day Weather Forecast

Advertisements
Track Severe Weather on mobile